Time;durP1;ratioP1;P1;durP2;ratioP2;P2;SDS_P1;SDS_P2;PMS_P1;PMS_P2;Temp;Humidity;BMP_temperature;BMP_pressure;BME280_temperature;BME280_humidity;BME280_pressure;Samples;Min_cycle;Max_cycle;Signal;HPM_P1;HPM_P2
2023/07/03 00:00:45;;;;;;;15.10;12.20;;;;;;;15.80;100.00;96820.91;110219;1241;58917;-63
2023/07/03 00:03:38;;;;;;;16.40;12.00;;;;;;;15.77;100.00;96824.80;110149;1246;69848;-64
2023/07/03 00:06:08;;;;;;;15.20;11.60;;;;;;;15.74;100.00;96825.73;110142;1244;69304;-63
2023/07/03 00:08:39;;;;;;;15.40;13.20;;;;;;;15.73;100.00;96823.63;110106;1245;69293;-63
2023/07/03 00:11:09;;;;;;;13.00;10.90;;;;;;;15.73;100.00;96827.69;110130;1246;58940;-64
2023/07/03 00:13:40;;;;;;;14.50;11.60;;;;;;;15.70;100.00;96825.98;110121;1241;58823;-66
2023/07/03 00:16:11;;;;;;;15.40;11.80;;;;;;;15.67;100.00;96825.95;110183;1243;70707;-64
2023/07/03 00:18:43;;;;;;;16.40;12.80;;;;;;;15.65;100.00;96824.38;110179;1244;68339;-64
2023/07/03 00:21:15;;;;;;;16.60;12.90;;;;;;;15.63;100.00;96827.27;110161;1243;69091;-64
2023/07/03 00:23:46;;;;;;;17.30;14.40;;;;;;;15.61;100.00;96826.70;110157;1245;58878;-65
2023/07/03 00:26:16;;;;;;;15.80;12.00;;;;;;;15.60;100.00;96825.94;110142;1245;58852;-65
2023/07/03 00:28:47;;;;;;;17.90;13.50;;;;;;;15.59;100.00;96828.83;110150;1245;71205;-65
2023/07/03 00:31:17;;;;;;;16.00;12.80;;;;;;;15.60;100.00;96829.20;110147;1241;69215;-64
2023/07/03 00:33:47;;;;;;;16.40;12.80;;;;;;;15.59;100.00;96831.87;109869;1246;69289;-64
2023/07/03 00:36:17;;;;;;;15.90;12.70;;;;;;;15.60;100.00;96832.66;110101;1244;58864;-64
2023/07/03 00:38:48;;;;;;;12.90;10.60;;;;;;;15.59;100.00;96827.19;110142;1244;58875;-64
2023/07/03 00:41:20;;;;;;;15.60;12.40;;;;;;;15.59;100.00;96820.67;110166;1245;69673;-64
2023/07/03 00:43:51;;;;;;;14.00;11.70;;;;;;;15.58;100.00;96819.88;110194;1245;68539;-64
2023/07/03 00:46:25;;;;;;;13.80;11.50;;;;;;;15.58;100.00;96820.77;110142;1246;68596;-65
2023/07/03 00:48:55;;;;;;;15.50;12.60;;;;;;;15.57;100.00;96823.61;110132;1241;58914;-63
2023/07/03 00:51:26;;;;;;;13.50;10.90;;;;;;;15.57;100.00;96825.61;110206;1244;58873;-63
2023/07/03 00:53:57;;;;;;;14.60;11.30;;;;;;;15.57;100.00;96827.36;110156;1241;70577;-65
2023/07/03 00:56:28;;;;;;;15.70;11.70;;;;;;;15.56;100.00;96825.52;110168;1241;68845;-64
2023/07/03 00:58:59;;;;;;;13.50;11.00;;;;;;;15.56;100.00;96827.49;110166;1241;69566;-64
2023/07/03 01:02:06;;;;;;;14.20;11.40;;;;;;;15.54;100.00;96830.76;110063;1242;58955;-63
2023/07/03 01:04:46;;;;;;;14.80;12.20;;;;;;;15.53;100.00;96827.77;110162;1245;58886;-63
2023/07/03 01:07:25;;;;;;;16.50;12.00;;;;;;;15.52;100.00;96830.83;110187;1241;70721;-63
2023/07/03 01:10:12;;;;;;;16.10;11.90;;;;;;;15.49;100.00;96828.45;110032;1245;69052;-64
2023/07/03 01:12:46;;;;;;;17.40;13.80;;;;;;;15.48;100.00;96831.05;110132;1245;68309;-64
2023/07/03 01:15:23;;;;;;;17.80;14.20;;;;;;;15.48;100.00;96833.90;110088;1245;58951;-64
2023/07/03 01:17:59;;;;;;;17.30;14.50;;;;;;;15.48;100.00;96841.11;110196;1242;58883;-64
2023/07/03 01:20:54;;;;;;;15.50;12.50;;;;;;;15.47;100.00;96842.19;109973;1246;69695;-64
2023/07/03 01:23:47;;;;;;;14.40;11.80;;;;;;;15.44;100.00;96843.79;110167;1244;68189;-64
2023/07/03 01:26:21;;;;;;;15.30;12.40;;;;;;;15.36;100.00;96848.85;110174;1245;69297;-64
2023/07/03 01:28:59;;;;;;;15.40;12.30;;;;;;;15.27;100.00;96849.18;110213;1244;58863;-64
2023/07/03 01:31:32;;;;;;;14.60;11.30;;;;;;;15.21;100.00;96848.48;110156;1243;58862;-64
2023/07/03 01:34:08;;;;;;;16.30;12.10;;;;;;;15.18;100.00;96849.31;110178;1245;69854;-64
2023/07/03 01:36:42;;;;;;;15.30;11.60;;;;;;;15.17;100.00;96856.71;109884;1246;69100;-65
2023/07/03 01:39:15;;;;;;;13.50;12.00;;;;;;;15.15;100.00;96863.20;109962;1248;68544;-65
2023/07/03 01:41:49;;;;;;;13.90;11.50;;;;;;;15.13;100.00;96862.19;110134;1243;58892;-64
2023/07/03 01:44:21;;;;;;;16.50;12.20;;;;;;;15.10;100.00;96865.28;110142;1243;58880;-65
2023/07/03 01:46:52;;;;;;;14.70;12.10;;;;;;;15.08;100.00;96871.84;110236;1241;69678;-64
2023/07/03 01:49:22;;;;;;;15.70;12.60;;;;;;;15.05;100.00;96873.10;110159;1244;69250;-63
2023/07/03 01:52:03;;;;;;;13.60;11.50;;;;;;;15.02;100.00;96875.69;110014;1245;69841;-63
2023/07/03 01:54:49;;;;;;;14.70;12.10;;;;;;;15.00;100.00;96873.45;109978;1241;58848;-63
2023/07/03 01:57:31;;;;;;;15.50;11.60;;;;;;;14.97;100.00;96876.17;109084;1243;1425406;-64
2023/07/03 02:00:09;;;;;;;14.20;11.00;;;;;;;14.96;100.00;96877.66;110160;1241;69639;-65
2023/07/03 02:02:48;;;;;;;15.90;13.10;;;;;;;14.97;100.00;96877.63;110222;1241;68544;-63
2023/07/03 02:05:30;;;;;;;14.10;11.30;;;;;;;14.99;100.00;96881.78;110208;1244;69288;-64
2023/07/03 02:08:03;;;;;;;13.90;11.60;;;;;;;15.00;100.00;96885.40;110173;1246;58988;-63
2023/07/03 02:10:33;;;;;;;18.00;13.90;;;;;;;15.00;100.00;96889.61;110102;1241;58914;-64
2023/07/03 02:13:09;;;;;;;15.40;12.20;;;;;;;15.00;100.00;96890.27;110201;1245;70131;-66
2023/07/03 02:15:41;;;;;;;14.60;11.10;;;;;;;15.01;100.00;96893.17;110065;1243;68113;-64
2023/07/03 02:18:17;;;;;;;15.70;13.40;;;;;;;15.02;100.00;96895.74;110179;1241;68517;-65
2023/07/03 02:20:51;;;;;;;15.60;12.70;;;;;;;15.02;100.00;96894.83;110114;1241;58950;-64
2023/07/03 02:23:21;;;;;;;16.10;12.50;;;;;;;15.03;100.00;96895.80;110183;1241;59026;-64
2023/07/03 02:25:52;;;;;;;15.60;12.80;;;;;;;15.06;100.00;96897.43;110206;1241;70437;-64
2023/07/03 02:28:28;;;;;;;15.10;12.20;;;;;;;15.08;100.00;96903.05;110170;1242;68555;-64
2023/07/03 02:30:59;;;;;;;15.40;12.20;;;;;;;15.10;100.00;96910.02;110199;1244;68513;-64
2023/07/03 02:33:31;;;;;;;15.10;12.00;;;;;;;15.12;100.00;96912.82;110140;1244;58820;-64
2023/07/03 02:36:05;;;;;;;17.70;13.90;;;;;;;15.14;100.00;96914.17;110215;1244;58841;-66
2023/07/03 02:38:37;;;;;;;19.60;15.30;;;;;;;15.18;100.00;96916.73;110162;1243;70437;-63
2023/07/03 02:41:08;;;;;;;18.60;14.10;;;;;;;15.23;100.00;96914.49;110012;1241;68868;-63
2023/07/03 02:43:39;;;;;;;16.20;13.00;;;;;;;15.29;100.00;96916.57;110120;1244;70308;-64
2023/07/03 02:46:13;;;;;;;16.80;13.50;;;;;;;15.29;100.00;96914.73;110163;1241;58903;-62
2023/07/03 02:48:45;;;;;;;18.80;13.80;;;;;;;15.29;100.00;96912.84;110191;1244;58858;-64
2023/07/03 02:51:15;;;;;;;15.30;12.90;;;;;;;15.27;100.00;96919.71;110184;1242;71030;-65
2023/07/03 02:53:45;;;;;;;15.30;12.10;;;;;;;15.26;100.00;96920.80;109909;1245;69297;-64
2023/07/03 02:56:17;;;;;;;16.50;12.90;;;;;;;15.29;100.00;96921.45;110165;1244;69283;-64
2023/07/03 02:58:49;;;;;;;14.30;11.90;;;;;;;15.32;100.00;96918.04;110024;1241;58914;-63
2023/07/03 03:01:25;;;;;;;15.00;12.50;;;;;;;15.33;100.00;96921.99;110203;1244;58888;-64
2023/07/03 03:03:58;;;;;;;16.60;12.80;;;;;;;15.33;100.00;96922.35;110107;1241;69855;-64
2023/07/03 03:06:29;;;;;;;15.40;12.90;;;;;;;15.33;100.00;96920.41;110194;1244;69385;-65
2023/07/03 03:09:00;;;;;;;14.20;11.60;;;;;;;15.34;100.00;96922.76;110142;1245;69641;-63
2023/07/03 03:11:33;;;;;;;14.60;11.20;;;;;;;15.36;100.00;96923.60;110188;1245;58956;-64
2023/07/03 03:14:04;;;;;;;14.00;11.70;;;;;;;15.39;100.00;96922.27;109994;1246;58918;-63
2023/07/03 03:16:35;;;;;;;16.70;12.60;;;;;;;15.41;100.00;96924.27;109819;1241;70393;-62
2023/07/03 03:19:06;;;;;;;15.40;12.40;;;;;;;15.45;100.00;96917.58;110160;1244;69290;-63
2023/07/03 03:21:38;;;;;;;18.30;13.60;;;;;;;15.47;100.00;96919.98;110064;1246;69299;-64
2023/07/03 03:24:11;;;;;;;16.90;14.00;;;;;;;15.49;100.00;96920.12;110124;1241;58939;-64
2023/07/03 03:26:43;;;;;;;19.00;15.00;;;;;;;15.51;100.00;96920.78;110177;1241;58875;-64
2023/07/03 03:29:15;;;;;;;17.10;13.00;;;;;;;15.53;100.00;96922.41;110157;1241;70777;-64
2023/07/03 03:31:46;;;;;;;14.50;11.90;;;;;;;15.57;100.00;96921.68;110181;1245;69664;-64
2023/07/03 03:34:16;;;;;;;15.30;12.10;;;;;;;15.62;100.00;96928.34;109996;1245;69914;-65
2023/07/03 03:36:47;;;;;;;14.60;12.20;;;;;;;15.60;100.00;96927.37;110123;1244;58909;-63
2023/07/03 03:39:17;;;;;;;19.00;13.80;;;;;;;15.68;100.00;96927.45;110197;1241;58870;-64
2023/07/03 03:41:49;;;;;;;18.40;13.30;;;;;;;15.70;100.00;96929.00;109957;1241;70635;-63
2023/07/03 03:44:20;;;;;;;16.60;13.60;;;;;;;15.64;100.00;96929.21;110128;1241;68466;-63
2023/07/03 03:46:53;;;;;;;16.70;13.20;;;;;;;15.73;100.00;96928.10;110154;1245;69465;-64
2023/07/03 03:49:22;;;;;;;14.80;11.70;;;;;;;15.89;100.00;96932.64;110175;1241;58939;-64
2023/07/03 03:51:55;;;;;;;18.10;13.80;;;;;;;15.99;100.00;96934.25;110183;1244;58920;-63
2023/07/03 03:54:28;;;;;;;15.90;13.20;;;;;;;16.08;100.00;96938.48;110202;1242;70439;-63
2023/07/03 03:56:58;;;;;;;15.70;13.70;;;;;;;16.16;100.00;96937.40;110174;1244;68372;-64
2023/07/03 03:59:28;;;;;;;15.90;13.60;;;;;;;16.26;100.00;96937.20;110141;1241;69303;-64
2023/07/03 04:02:00;;;;;;;15.80;13.10;;;;;;;16.41;100.00;96938.23;110112;1244;58943;-64
2023/07/03 04:04:32;;;;;;;16.30;13.60;;;;;;;16.52;100.00;96943.05;110149;1243;58878;-64
2023/07/03 04:07:03;;;;;;;15.20;13.00;;;;;;;16.65;100.00;96944.77;110090;1245;70419;-64
2023/07/03 04:09:33;;;;;;;18.70;14.60;;;;;;;16.79;100.00;96950.64;110190;1241;68483;-64
2023/07/03 04:12:03;;;;;;;;;;;;;;;16.96;100.00;96951.41;110163;1244;69288;-65
2023/07/03 04:14:33;;;;;;;16.10;12.90;;;;;;;17.12;100.00;96951.48;110176;1244;58932;-64
2023/07/03 04:17:05;;;;;;;14.90;13.30;;;;;;;17.28;100.00;96953.41;110153;1244;58972;-65
2023/07/03 04:19:36;;;;;;;14.90;13.30;;;;;;;17.43;100.00;96953.78;110184;1243;70651;-65
2023/07/03 04:22:05;;;;;;;14.50;11.90;;;;;;;17.60;100.00;96959.35;110160;1243;69643;-64
2023/07/03 04:24:35;;;;;;;12.80;11.10;;;;;;;17.75;100.00;96955.10;109927;1241;69088;-64
2023/07/03 04:27:05;;;;;;;14.30;12.50;;;;;;;17.91;100.00;96956.18;110153;1244;58908;-65
2023/07/03 04:29:34;;;;;;;16.10;13.40;;;;;;;17.99;100.00;96957.25;110142;1241;58883;-63
2023/07/03 04:32:04;;;;;;;14.30;12.80;;;;;;;18.15;100.00;96957.41;110141;1241;71010;-65
2023/07/03 04:34:33;;;;;;;14.90;12.70;;;;;;;18.32;100.00;96960.09;110194;1241;68563;-64
2023/07/03 04:37:03;;;;;;;15.60;12.60;;;;;;;18.48;100.00;96958.55;110167;1241;69953;-64
2023/07/03 04:39:32;;;;;;;15.20;12.30;;;;;;;18.61;100.00;96960.86;110143;1244;58907;-64
2023/07/03 04:42:03;;;;;;;;;;;;;;;18.79;100.00;96971.07;110175;1241;58902;-64
2023/07/03 04:44:33;;;;;;;13.10;11.20;;;;;;;18.95;100.00;96971.77;110150;1243;71663;-64
2023/07/03 04:47:04;;;;;;;12.00;10.60;;;;;;;19.04;100.00;96975.24;110125;1241;68636;-63
2023/07/03 04:49:35;;;;;;;14.00;12.60;;;;;;;19.14;100.00;96976.34;110129;1244;69765;-63
2023/07/03 04:52:04;;;;;;;14.30;12.80;;;;;;;19.18;100.00;96977.57;110119;1244;58940;-64
2023/07/03 04:54:35;;;;;;;13.60;12.10;;;;;;;19.24;100.00;96981.67;110097;1244;58891;-64
2023/07/03 04:57:04;;;;;;;13.60;11.90;;;;;;;19.31;100.00;96982.98;110168;1241;71174;-64
2023/07/03 04:59:35;;;;;;;14.00;11.50;;;;;;;19.48;100.00;96985.10;110110;1244;69307;-62
2023/07/03 05:02:06;;;;;;;13.50;12.10;;;;;;;19.53;100.00;96985.68;110148;1243;69788;-66
2023/07/03 05:04:35;;;;;;;14.00;11.90;;;;;;;19.58;100.00;96986.42;110181;1241;58887;-63
2023/07/03 05:07:05;;;;;;;12.60;11.30;;;;;;;19.67;100.00;96991.23;110152;1244;58890;-63
2023/07/03 05:09:34;;;;;;;;;;;;;;;19.78;100.00;96990.97;110169;1244;70666;-65
2023/07/03 05:12:04;;;;;;;13.50;11.30;;;;;;;20.00;100.00;96997.02;110177;1244;69842;-64
2023/07/03 05:14:35;;;;;;;;;;;;;;;20.22;100.00;96989.25;110157;1250;69807;-64
2023/07/03 05:17:04;;;;;;;11.40;10.20;;;;;;;20.49;100.00;96994.91;110141;1243;58871;-65
2023/07/03 05:19:33;;;;;;;12.10;10.70;;;;;;;20.76;100.00;96991.91;110155;1241;58919;-63
2023/07/03 05:22:03;;;;;;;12.20;10.90;;;;;;;21.07;99.86;96995.95;110195;1245;70547;-63
2023/07/03 05:24:34;;;;;;;12.20;10.90;;;;;;;21.13;99.82;96997.77;110175;1243;69836;-63
2023/07/03 05:27:03;;;;;;;11.00;9.90;;;;;;;21.15;100.00;97001.52;110170;1245;69921;-64
2023/07/03 05:29:33;;;;;;;12.40;11.20;;;;;;;21.13;99.39;97003.67;110146;1241;59008;-64
2023/07/03 05:32:04;;;;;;;10.50;9.50;;;;;;;21.13;99.37;97008.25;110173;1243;58905;-64
2023/07/03 05:34:35;;;;;;;11.80;10.60;;;;;;;21.21;98.90;97010.79;110150;1241;70659;-64
2023/07/03 05:37:06;;;;;;;13.30;11.90;;;;;;;21.08;98.21;97012.73;110174;1241;69184;-64
2023/07/03 05:39:36;;;;;;;10.70;9.80;;;;;;;21.07;98.60;97016.27;110156;1246;70238;-65
2023/07/03 05:42:06;;;;;;;12.50;11.20;;;;;;;20.83;99.35;97015.62;110164;1244;58913;-64
2023/07/03 05:44:36;;;;;;;;;;;;;;;20.58;100.00;97011.81;110110;1245;58884;-62
2023/07/03 05:47:06;;;;;;;11.00;9.90;;;;;;;20.68;100.00;97012.52;110168;1248;68632;-65
2023/07/03 05:49:35;;;;;;;10.40;9.40;;;;;;;20.83;99.91;97009.74;110183;1243;69209;-63
2023/07/03 05:52:05;;;;;;;11.50;10.40;;;;;;;20.79;99.82;97015.20;110175;1241;69876;-64
2023/07/03 05:54:34;;;;;;;11.50;10.20;;;;;;;20.99;100.00;97014.83;110142;1244;58887;-63
2023/07/03 05:57:07;;;;;;;12.60;10.30;;;;;;;21.13;98.09;97019.04;110184;1244;59269;-63
2023/07/03 05:59:39;;;;;;;12.00;10.80;;;;;;;21.21;98.51;97017.22;110191;1243;71225;-64
2023/07/03 06:02:11;;;;;;;10.90;9.80;;;;;;;21.34;98.27;97022.06;110209;1241;68878;-65
2023/07/03 06:04:40;;;;;;;11.40;10.10;;;;;;;21.48;98.40;97023.69;110149;1244;69759;-63
2023/07/03 06:07:10;;;;;;;;;;;;;;;21.53;96.23;97025.88;110156;1245;58949;-64
2023/07/03 06:09:39;;;;;;;12.00;10.80;;;;;;;21.61;95.47;97027.88;110226;1243;58885;-64
2023/07/03 06:12:08;;;;;;;11.80;10.60;;;;;;;21.44;95.42;97035.75;110193;1243;71198;-64
2023/07/03 06:14:38;;;;;;;11.80;10.60;;;;;;;21.48;95.24;97038.02;110105;1244;69165;-63
2023/07/03 06:17:07;;;;;;;11.70;10.50;;;;;;;21.41;95.26;97039.58;110147;1245;70217;-63
2023/07/03 06:19:36;;;;;;;11.00;9.80;;;;;;;21.39;95.57;97039.21;110111;1244;58889;-63
2023/07/03 06:22:05;;;;;;;10.70;9.70;;;;;;;21.47;95.56;97042.18;110179;1244;58883;-64
2023/07/03 06:24:34;;;;;;;11.80;10.60;;;;;;;21.50;95.67;97040.09;110162;1244;70941;-62
2023/07/03 06:27:06;;;;;;;10.50;9.20;;;;;;;21.52;94.89;97040.68;110193;1243;69145;-64
2023/07/03 06:29:35;;;;;;;11.40;10.30;;;;;;;21.55;94.48;97042.10;110218;1244;69944;-64
2023/07/03 06:32:05;;;;;;;11.60;10.40;;;;;;;21.64;95.03;97039.73;110164;1243;58863;-64
2023/07/03 06:34:35;;;;;;;11.60;10.40;;;;;;;21.78;94.55;97045.27;110163;1241;58875;-63
2023/07/03 06:37:05;;;;;;;12.50;11.20;;;;;;;21.85;92.81;97044.05;110165;1244;70609;-63
2023/07/03 06:39:38;;;;;;;12.00;10.80;;;;;;;21.83;91.95;97042.64;110177;1244;69670;-64
2023/07/03 06:42:08;;;;;;;10.80;9.80;;;;;;;21.76;91.28;97044.95;110132;1241;70220;-64
2023/07/03 06:44:43;;;;;;;11.90;10.70;;;;;;;21.91;91.78;97048.31;110176;1241;58941;-64
2023/07/03 06:47:12;;;;;;;12.40;11.20;;;;;;;21.78;91.46;97042.23;110090;1241;58896;-64
2023/07/03 06:49:41;;;;;;;11.70;10.50;;;;;;;21.70;91.71;97042.97;110168;1245;69932;-62
2023/07/03 06:52:10;;;;;;;12.20;11.00;;;;;;;21.74;92.27;97040.51;110163;1244;69807;-65
2023/07/03 06:54:39;;;;;;;11.90;10.40;;;;;;;21.80;91.70;97040.27;110145;1245;69969;-63
2023/07/03 06:57:08;;;;;;;11.20;10.10;;;;;;;21.99;90.65;97042.83;110112;1243;58976;-63
2023/07/03 06:59:37;;;;;;;11.50;10.40;;;;;;;22.52;90.02;97044.33;110231;1251;58935;-65
2023/07/03 07:02:07;;;;;;;10.90;9.80;;;;;;;22.99;86.96;97040.01;110171;1244;71182;-63
2023/07/03 07:04:36;;;;;;;11.90;10.20;;;;;;;23.44;86.33;97038.31;110204;1244;69229;-63
2023/07/03 07:07:05;;;;;;;11.30;10.10;;;;;;;23.71;82.40;97037.13;110171;1244;69716;-65
2023/07/03 07:09:34;;;;;;;10.50;9.40;;;;;;;23.99;81.67;97039.56;110139;1245;58890;-64
2023/07/03 07:12:03;;;;;;;10.30;9.30;;;;;;;24.17;81.49;97040.26;110194;1244;58842;-65
2023/07/03 07:14:33;;;;;;;11.10;10.00;;;;;;;24.29;79.13;97039.96;110187;1244;71356;-64
2023/07/03 07:17:02;;;;;;;11.70;10.50;;;;;;;24.02;79.14;97039.73;110132;1242;69279;-66
2023/07/03 07:19:32;;;;;;;11.70;10.60;;;;;;;23.88;78.84;97044.39;110118;1241;69262;-66
2023/07/03 07:22:01;;;;;;;10.80;9.70;;;;;;;23.82;79.20;97042.71;110199;1245;58953;-65
2023/07/03 07:24:30;;;;;;;;;;;;;;;23.94;79.11;97045.80;110167;1241;59343;-66
2023/07/03 07:27:00;;;;;;;10.30;9.30;;;;;;;23.51;79.64;97042.06;110225;1241;70204;-64
2023/07/03 07:29:29;;;;;;;9.80;8.80;;;;;;;23.50;79.56;97044.23;110198;1245;68741;-65
2023/07/03 07:31:58;;;;;;;11.80;10.40;;;;;;;23.78;79.33;97047.64;110173;1244;69072;-65
2023/07/03 07:34:27;;;;;;;11.60;10.40;;;;;;;24.14;78.37;97047.86;110133;1241;58934;-64
2023/07/03 07:36:56;;;;;;;11.50;10.30;;;;;;;24.47;75.59;97047.09;110167;1243;58837;-65
2023/07/03 07:39:26;;;;;;;11.10;10.00;;;;;;;25.01;75.83;97044.06;110178;1241;70593;-65
2023/07/03 07:41:56;;;;;;;11.00;9.90;;;;;;;25.40;72.88;97042.79;110138;1244;69217;-65
2023/07/03 07:44:26;;;;;;;10.10;9.10;;;;;;;25.45;72.38;97045.11;110222;1243;69873;-65
2023/07/03 07:46:55;;;;;;;10.50;9.50;;;;;;;25.44;72.17;97044.91;110174;1244;58940;-66
2023/07/03 07:49:24;;;;;;;10.50;9.40;;;;;;;25.52;70.84;97043.59;110192;1241;59293;-65
2023/07/03 07:51:54;;;;;;;11.10;9.30;;;;;;;25.59;71.24;97046.70;110174;1244;70062;-66
2023/07/03 07:54:23;;;;;;;9.50;8.60;;;;;;;25.81;71.50;97045.84;110146;1241;69266;-66
2023/07/03 07:56:52;;;;;;;10.50;9.50;;;;;;;25.68;68.77;97046.17;110122;1245;69295;-65
2023/07/03 07:59:21;;;;;;;9.80;8.90;;;;;;;26.20;69.26;97048.19;110193;1243;58906;-66
2023/07/03 08:01:51;;;;;;;10.20;9.30;;;;;;;26.73;68.15;97050.60;110169;1245;58842;-67
2023/07/03 08:04:20;;;;;;;11.30;10.00;;;;;;;27.22;65.98;97051.13;110208;1241;71160;-66
2023/07/03 08:06:49;;;;;;;9.90;9.00;;;;;;;27.67;64.69;97050.56;110188;1241;69842;-66
2023/07/03 08:09:18;;;;;;;11.30;9.80;;;;;;;28.12;60.83;97050.11;110139;1241;69853;-66
2023/07/03 08:11:47;;;;;;;9.90;8.90;;;;;;;28.06;60.04;97054.86;110211;1244;59346;-65
2023/07/03 08:14:16;;;;;;;10.10;9.10;;;;;;;28.21;60.31;97058.73;110214;1241;58876;-65
2023/07/03 08:16:45;;;;;;;10.50;8.80;;;;;;;28.21;59.62;97055.82;110183;1244;71151;-65
2023/07/03 08:19:14;;;;;;;10.60;9.50;;;;;;;28.21;60.17;97057.98;110211;1245;69385;-66
2023/07/03 08:21:44;;;;;;;10.10;9.00;;;;;;;28.19;59.98;97054.80;110176;1245;69852;-67
2023/07/03 08:24:12;;;;;;;;;;;;;;;28.13;59.87;97058.41;110198;1241;58969;-66
2023/07/03 08:26:48;;;;;;;11.10;9.90;;;;;;;27.78;60.53;97054.31;110190;1244;59191;-66
2023/07/03 08:29:18;;;;;;;10.60;9.60;;;;;;;27.70;61.29;97055.11;110175;1241;71505;-66
2023/07/03 08:31:47;;;;;;;11.30;10.10;;;;;;;27.71;61.03;97056.76;110178;1244;69807;-67
2023/07/03 08:34:15;;;;;;;;;;;;;;;27.55;60.69;97057.05;110175;1241;69879;-65
2023/07/03 08:36:45;;;;;;;11.20;10.10;;;;;;;27.10;61.68;97055.35;110187;1241;58932;-66
2023/07/03 08:39:17;;;;;;;9.80;8.80;;;;;;;27.07;61.86;97053.91;110202;1244;58882;-65
2023/07/03 08:42:09;;;;;;;10.30;9.30;;;;;;;27.37;62.07;97055.02;110155;1241;71036;-65
2023/07/03 08:44:38;;;;;;;10.60;9.50;;;;;;;27.37;60.84;97058.88;110212;1244;69797;-67
2023/07/03 08:47:13;;;;;;;10.00;9.00;;;;;;;27.81;60.27;97060.33;110183;1241;69944;-65
2023/07/03 08:49:44;;;;;;;9.10;8.30;;;;;;;28.25;58.78;97061.23;110175;1241;58872;-65
2023/07/03 08:52:23;;;;;;;10.50;9.60;;;;;;;28.03;58.28;97063.91;110162;1243;58867;-67
2023/07/03 08:54:53;;;;;;;8.70;7.90;;;;;;;27.89;59.33;97065.60;110159;1241;71000;-65
2023/07/03 08:57:24;;;;;;;12.90;8.40;;;;;;;27.92;59.27;97068.69;110173;1244;69199;-67
2023/07/03 08:59:54;;;;;;;8.30;6.90;;;;;;;28.08;59.11;97070.06;110169;1243;69835;-66
2023/07/03 09:02:48;;;;;;;9.20;8.30;;;;;;;27.99;58.29;97069.58;110195;1243;58891;-66
2023/07/03 09:05:36;;;;;;;10.30;8.60;;;;;;;28.15;57.58;97068.13;110213;1245;58896;-66
2023/07/03 09:08:09;;;;;;;9.60;8.60;;;;;;;28.55;57.98;97069.38;110226;1243;69857;-68
2023/07/03 09:10:44;;;;;;;9.70;8.80;;;;;;;28.87;54.48;97068.96;110192;1241;68730;-65
2023/07/03 09:13:22;;;;;;;8.80;7.90;;;;;;;28.90;53.97;97070.06;110186;1243;69749;-68
2023/07/03 09:16:02;;;;;;;10.40;9.20;;;;;;;28.29;55.50;97072.04;110171;1242;58966;-66
2023/07/03 09:18:36;;;;;;;9.40;8.30;;;;;;;28.61;56.39;97072.20;110217;1244;58878;-66
2023/07/03 09:21:06;;;;;;;8.60;7.70;;;;;;;29.10;57.39;97074.16;110172;1241;71528;-65
2023/07/03 09:23:56;;;;;;;10.50;9.50;;;;;;;29.07;54.19;97071.87;110158;1241;69405;-65
2023/07/03 09:26:42;;;;;;;8.20;7.40;;;;;;;28.90;53.80;97075.20;110145;1244;69912;-65
2023/07/03 09:29:11;;;;;;;10.80;9.60;;;;;;;29.39;52.66;97068.22;110175;1244;58854;-66
2023/07/03 09:31:41;;;;;;;9.30;8.20;;;;;;;29.04;52.83;97069.95;110220;1241;58922;-66
2023/07/03 09:34:10;;;;;;;9.00;8.20;;;;;;;28.40;54.60;97073.30;110175;1244;70914;-67
2023/07/03 09:36:40;;;;;;;;;;;;;;;28.65;55.93;97073.36;110194;1244;69678;-66
2023/07/03 09:39:13;;;;;;;9.60;8.60;;;;;;;29.29;53.83;97070.13;110143;1244;69088;-64
2023/07/03 09:41:42;;;;;;;8.20;7.50;;;;;;;29.90;52.96;97065.59;110182;1242;58843;-66
2023/07/03 09:44:13;;;;;;;8.20;7.40;;;;;;;30.05;51.37;97065.63;110112;1241;58931;-65
2023/07/03 09:46:43;;;;;;;7.00;6.40;;;;;;;30.58;50.03;97063.20;110144;1241;70400;-66
2023/07/03 09:49:28;;;;;;;7.30;6.60;;;;;;;30.69;48.14;97065.20;110166;1241;69141;-66
2023/07/03 09:51:59;;;;;;;6.90;6.20;;;;;;;30.86;48.82;97062.54;110152;1245;69711;-66
2023/07/03 09:54:31;;;;;;;8.80;8.00;;;;;;;30.48;49.07;97060.14;110198;1243;58905;-66
2023/07/03 09:57:05;;;;;;;9.40;8.50;;;;;;;30.06;50.66;97059.98;110196;1244;58905;-65
2023/07/03 09:59:36;;;;;;;7.10;6.50;;;;;;;29.70;51.36;97061.77;110170;1244;69799;-66
2023/07/03 10:02:08;;;;;;;6.30;5.70;;;;;;;29.76;51.66;97062.15;110169;1241;69808;-66
2023/07/03 10:04:45;;;;;;;7.70;7.00;;;;;;;29.74;51.92;97063.48;110164;1241;69828;-66
2023/07/03 10:07:17;;;;;;;7.70;7.00;;;;;;;29.85;51.39;97058.16;110152;1241;58953;-66
2023/07/03 10:09:47;;;;;;;7.50;6.80;;;;;;;30.11;50.63;97056.23;110164;1244;58902;-67
2023/07/03 10:12:34;;;;;;;7.80;7.10;;;;;;;30.02;50.99;97052.90;110158;1244;71147;-67
2023/07/03 10:15:14;;;;;;;9.90;6.50;;;;;;;29.63;50.23;97056.83;110198;1244;69826;-67
2023/07/03 10:17:54;;;;;;;6.30;5.70;;;;;;;29.50;49.23;97058.05;110236;1245;69374;-67
2023/07/03 10:20:34;;;;;;;6.70;5.90;;;;;;;29.82;49.37;97054.79;110175;1244;58949;-64
2023/07/03 10:23:07;;;;;;;6.30;5.70;;;;;;;29.81;50.06;97059.71;110188;1243;58870;-65
2023/07/03 10:25:42;;;;;;;6.10;5.50;;;;;;;29.93;48.87;97064.66;110194;1241;70561;-66
2023/07/03 10:28:21;;;;;;;5.90;5.30;;;;;;;30.14;48.82;97059.97;110192;1243;69831;-67
2023/07/03 10:30:56;;;;;;;5.90;5.30;;;;;;;30.36;49.05;97054.97;110132;1241;69808;-66
2023/07/03 10:33:30;;;;;;;6.90;6.20;;;;;;;30.81;48.21;97048.91;110165;1243;58885;-66
2023/07/03 10:36:06;;;;;;;6.70;6.10;;;;;;;30.96;48.26;97049.11;110169;1244;58905;-66
2023/07/03 10:38:38;;;;;;;6.50;5.80;;;;;;;30.62;47.74;97045.50;110170;1241;71180;-65
2023/07/03 10:41:12;;;;;;;5.80;5.20;;;;;;;30.80;48.34;97044.10;110164;1241;68491;-66
2023/07/03 10:43:49;;;;;;;5.70;5.10;;;;;;;31.24;48.17;97039.34;110153;1243;69284;-66
2023/07/03 10:46:30;;;;;;;6.50;5.70;;;;;;;31.32;46.78;97040.28;110155;1243;58947;-66
2023/07/03 10:49:04;;;;;;;5.30;4.80;;;;;;;31.17;46.66;97036.05;110158;1243;58947;-67
2023/07/03 10:51:54;;;;;;;5.90;5.00;;;;;;;31.49;45.97;97038.45;110180;1243;70564;-66
2023/07/03 10:54:55;;;;;;;6.00;5.40;;;;;;;31.57;44.49;97033.05;110193;1244;69865;-66
2023/07/03 10:57:45;;;;;;;5.40;4.90;;;;;;;31.41;42.88;97031.03;110134;1244;69895;-66
2023/07/03 11:00:24;;;;;;;5.10;4.60;;;;;;;30.91;43.13;97032.66;110157;1241;58861;-66
2023/07/03 11:03:09;;;;;;;7.30;4.10;;;;;;;30.92;43.12;97028.73;110159;1243;58873;-67
2023/07/03 11:05:48;;;;;;;5.70;5.10;;;;;;;30.69;43.20;97027.38;110128;1241;69385;-65
2023/07/03 11:08:32;;;;;;;5.10;4.60;;;;;;;30.94;44.91;97026.64;110167;1243;70176;-65
2023/07/03 11:11:32;;;;;;;6.40;5.60;;;;;;;31.40;45.51;97028.98;110177;1241;69246;-66
2023/07/03 11:14:21;;;;;;;5.60;4.40;;;;;;;31.35;45.30;97022.90;110168;1241;59311;-66
2023/07/03 11:17:24;;;;;;;5.20;4.60;;;;;;;31.46;45.99;97029.69;110167;1241;58888;-66
2023/07/03 11:20:18;;;;;;;4.90;4.40;;;;;;;31.48;45.92;97031.46;110226;1241;71154;-67
2023/07/03 11:23:00;;;;;;;6.00;5.10;;;;;;;30.89;45.51;97025.70;110224;1244;68725;-66
2023/07/03 11:25:56;;;;;;;6.20;5.10;;;;;;;31.32;46.58;97023.71;110164;1241;69279;-67
2023/07/03 11:28:38;;;;;;;5.60;4.80;;;;;;;31.35;45.09;97023.00;109843;1245;58905;-67
2023/07/03 11:31:09;;;;;;;6.20;5.50;;;;;;;31.36;44.97;97025.38;110160;1244;58872;-65
2023/07/03 11:33:41;;;;;;;6.10;5.10;;;;;;;31.47;46.50;97029.23;110194;1244;71146;-66
2023/07/03 11:36:40;;;;;;;5.60;5.00;;;;;;;31.51;44.73;97025.75;110152;1241;69798;-67
2023/07/03 11:39:28;;;;;;;5.70;4.70;;;;;;;31.84;45.18;97022.70;110196;1241;69864;-66
2023/07/03 11:42:00;;;;;;;6.00;5.20;;;;;;;31.92;42.96;97022.66;110176;1243;58885;-68